sensor_id;sensor_type;location;lat;lon;timestamp;P1;durP1;ratioP1;P2;durP2;ratioP2
26163;SDS011;13914;48.178;11.716;2023-06-26T00:02:05;24.52;;;9.95;;
26163;SDS011;13914;48.178;11.716;2023-06-26T00:04:32;23.08;;;9.85;;
26163;SDS011;13914;48.178;11.716;2023-06-26T00:06:57;17.75;;;8.98;;
26163;SDS011;13914;48.178;11.716;2023-06-26T00:09:23;24.88;;;8.55;;
26163;SDS011;13914;48.178;11.716;2023-06-26T00:11:49;20.25;;;8.70;;
26163;SDS011;13914;48.178;11.716;2023-06-26T00:14:15;18.48;;;8.95;;
26163;SDS011;13914;48.178;11.716;2023-06-26T00:16:40;21.17;;;7.97;;
26163;SDS011;13914;48.178;11.716;2023-06-26T00:19:07;15.80;;;7.53;;
26163;SDS011;13914;48.178;11.716;2023-06-26T00:21:33;13.60;;;7.32;;
26163;SDS011;13914;48.178;11.716;2023-06-26T00:23:59;17.48;;;7.97;;
26163;SDS011;13914;48.178;11.716;2023-06-26T00:26:25;15.35;;;7.63;;
26163;SDS011;13914;48.178;11.716;2023-06-26T00:28:50;20.63;;;8.07;;
26163;SDS011;13914;48.178;11.716;2023-06-26T00:31:16;19.25;;;7.50;;
26163;SDS011;13914;48.178;11.716;2023-06-26T00:33:42;13.18;;;7.55;;
26163;SDS011;13914;48.178;11.716;2023-06-26T00:36:08;14.18;;;6.88;;
26163;SDS011;13914;48.178;11.716;2023-06-26T00:38:34;16.42;;;6.88;;
26163;SDS011;13914;48.178;11.716;2023-06-26T00:45:51;15.13;;;6.45;;
26163;SDS011;13914;48.178;11.716;2023-06-26T00:48:17;14.13;;;6.28;;
26163;SDS011;13914;48.178;11.716;2023-06-26T00:50:43;13.00;;;6.43;;
26163;SDS011;13914;48.178;11.716;2023-06-26T00:53:09;13.73;;;6.68;;
26163;SDS011;13914;48.178;11.716;2023-06-26T00:55:36;14.00;;;6.80;;
26163;SDS011;13914;48.178;11.716;2023-06-26T00:58:02;15.02;;;6.32;;
26163;SDS011;13914;48.178;11.716;2023-06-26T01:00:28;12.88;;;6.43;;
26163;SDS011;13914;48.178;11.716;2023-06-26T01:02:54;15.70;;;6.63;;
26163;SDS011;13914;48.178;11.716;2023-06-26T01:05:24;11.57;;;6.07;;
26163;SDS011;13914;48.178;11.716;2023-06-26T01:07:52;13.45;;;5.65;;
26163;SDS011;13914;48.178;11.716;2023-06-26T01:10:19;12.23;;;6.45;;
26163;SDS011;13914;48.178;11.716;2023-06-26T01:12:44;13.05;;;6.80;;
26163;SDS011;13914;48.178;11.716;2023-06-26T01:15:10;13.60;;;6.28;;
26163;SDS011;13914;48.178;11.716;2023-06-26T01:17:37;13.70;;;5.80;;
26163;SDS011;13914;48.178;11.716;2023-06-26T01:20:04;9.68;;;5.85;;
26163;SDS011;13914;48.178;11.716;2023-06-26T01:25:37;9.40;;;5.65;;
26163;SDS011;13914;48.178;11.716;2023-06-26T01:28:17;10.50;;;5.57;;
26163;SDS011;13914;48.178;11.716;2023-06-26T01:30:45;12.25;;;6.38;;
26163;SDS011;13914;48.178;11.716;2023-06-26T01:33:12;9.43;;;5.70;;
26163;SDS011;13914;48.178;11.716;2023-06-26T01:35:39;11.57;;;6.25;;
26163;SDS011;13914;48.178;11.716;2023-06-26T01:38:15;11.10;;;6.05;;
26163;SDS011;13914;48.178;11.716;2023-06-26T01:40:43;12.15;;;5.78;;
26163;SDS011;13914;48.178;11.716;2023-06-26T01:43:15;11.50;;;6.15;;
26163;SDS011;13914;48.178;11.716;2023-06-26T01:46:10;10.38;;;5.25;;
26163;SDS011;13914;48.178;11.716;2023-06-26T01:57:34;10.73;;;5.22;;
26163;SDS011;13914;48.178;11.716;2023-06-26T02:00:01;11.70;;;6.38;;
26163;SDS011;13914;48.178;11.716;2023-06-26T02:02:28;11.70;;;5.20;;
26163;SDS011;13914;48.178;11.716;2023-06-26T02:04:54;15.45;;;5.78;;
26163;SDS011;13914;48.178;11.716;2023-06-26T02:07:20;13.77;;;5.50;;
26163;SDS011;13914;48.178;11.716;2023-06-26T02:09:46;12.90;;;5.35;;
26163;SDS011;13914;48.178;11.716;2023-06-26T02:12:12;12.13;;;5.97;;
26163;SDS011;13914;48.178;11.716;2023-06-26T02:14:39;13.55;;;5.60;;
26163;SDS011;13914;48.178;11.716;2023-06-26T02:17:05;13.10;;;6.50;;
26163;SDS011;13914;48.178;11.716;2023-06-26T02:19:32;14.70;;;5.47;;
26163;SDS011;13914;48.178;11.716;2023-06-26T02:21:58;8.55;;;5.70;;
26163;SDS011;13914;48.178;11.716;2023-06-26T02:24:23;9.90;;;5.70;;
26163;SDS011;13914;48.178;11.716;2023-06-26T02:26:49;11.90;;;6.65;;
26163;SDS011;13914;48.178;11.716;2023-06-26T02:29:15;12.07;;;5.80;;
26163;SDS011;13914;48.178;11.716;2023-06-26T02:31:41;17.25;;;5.80;;
26163;SDS011;13914;48.178;11.716;2023-06-26T02:34:07;12.48;;;5.90;;
26163;SDS011;13914;48.178;11.716;2023-06-26T02:36:33;12.45;;;5.88;;
26163;SDS011;13914;48.178;11.716;2023-06-26T02:38:58;14.25;;;5.55;;
26163;SDS011;13914;48.178;11.716;2023-06-26T02:41:24;13.02;;;5.93;;
26163;SDS011;13914;48.178;11.716;2023-06-26T02:43:50;10.52;;;5.65;;
26163;SDS011;13914;48.178;11.716;2023-06-26T02:46:16;9.30;;;5.50;;
26163;SDS011;13914;48.178;11.716;2023-06-26T02:48:41;11.20;;;5.70;;
26163;SDS011;13914;48.178;11.716;2023-06-26T02:51:07;10.98;;;5.85;;
26163;SDS011;13914;48.178;11.716;2023-06-26T02:53:40;13.10;;;5.60;;
26163;SDS011;13914;48.178;11.716;2023-06-26T02:56:06;16.50;;;5.90;;
26163;SDS011;13914;48.178;11.716;2023-06-26T02:58:31;10.90;;;6.10;;
26163;SDS011;13914;48.178;11.716;2023-06-26T03:00:57;10.88;;;6.00;;
26163;SDS011;13914;48.178;11.716;2023-06-26T03:03:23;16.65;;;6.07;;
26163;SDS011;13914;48.178;11.716;2023-06-26T03:05:49;9.15;;;5.90;;
26163;SDS011;13914;48.178;11.716;2023-06-26T03:08:14;14.43;;;6.53;;
26163;SDS011;13914;48.178;11.716;2023-06-26T03:15:32;14.40;;;5.93;;
26163;SDS011;13914;48.178;11.716;2023-06-26T03:17:58;10.80;;;5.63;;
26163;SDS011;13914;48.178;11.716;2023-06-26T03:20:24;7.88;;;5.38;;
26163;SDS011;13914;48.178;11.716;2023-06-26T03:22:49;9.05;;;5.20;;
26163;SDS011;13914;48.178;11.716;2023-06-26T03:25:15;9.40;;;5.63;;
26163;SDS011;13914;48.178;11.716;2023-06-26T03:27:41;9.07;;;5.15;;
26163;SDS011;13914;48.178;11.716;2023-06-26T03:30:07;10.05;;;5.28;;
26163;SDS011;13914;48.178;11.716;2023-06-26T03:37:28;9.13;;;5.65;;
26163;SDS011;13914;48.178;11.716;2023-06-26T03:39:54;9.13;;;5.75;;
26163;SDS011;13914;48.178;11.716;2023-06-26T03:42:19;9.75;;;5.82;;
26163;SDS011;13914;48.178;11.716;2023-06-26T03:44:45;10.73;;;5.75;;
26163;SDS011;13914;48.178;11.716;2023-06-26T03:47:11;9.98;;;5.13;;
26163;SDS011;13914;48.178;11.716;2023-06-26T03:49:37;8.73;;;5.35;;
26163;SDS011;13914;48.178;11.716;2023-06-26T03:52:02;8.90;;;5.35;;
26163;SDS011;13914;48.178;11.716;2023-06-26T03:54:28;8.32;;;5.93;;
26163;SDS011;13914;48.178;11.716;2023-06-26T03:56:54;10.45;;;5.75;;
26163;SDS011;13914;48.178;11.716;2023-06-26T03:59:20;9.73;;;5.72;;
26163;SDS011;13914;48.178;11.716;2023-06-26T04:01:46;10.82;;;5.72;;
26163;SDS011;13914;48.178;11.716;2023-06-26T04:04:11;9.70;;;5.45;;
26163;SDS011;13914;48.178;11.716;2023-06-26T04:06:37;9.60;;;5.88;;
26163;SDS011;13914;48.178;11.716;2023-06-26T04:09:03;7.43;;;5.22;;
26163;SDS011;13914;48.178;11.716;2023-06-26T04:11:29;9.35;;;4.88;;
26163;SDS011;13914;48.178;11.716;2023-06-26T04:13:56;9.02;;;5.75;;
26163;SDS011;13914;48.178;11.716;2023-06-26T04:16:22;9.93;;;6.30;;
26163;SDS011;13914;48.178;11.716;2023-06-26T04:18:51;10.15;;;4.90;;
26163;SDS011;13914;48.178;11.716;2023-06-26T04:21:18;9.30;;;5.88;;
26163;SDS011;13914;48.178;11.716;2023-06-26T04:23:44;9.45;;;6.15;;
26163;SDS011;13914;48.178;11.716;2023-06-26T04:26:09;9.85;;;6.00;;
26163;SDS011;13914;48.178;11.716;2023-06-26T04:28:39;9.13;;;6.03;;
26163;SDS011;13914;48.178;11.716;2023-06-26T04:31:05;7.70;;;5.68;;
26163;SDS011;13914;48.178;11.716;2023-06-26T04:33:31;11.07;;;6.45;;
26163;SDS011;13914;48.178;11.716;2023-06-26T04:35:57;10.45;;;5.95;;
26163;SDS011;13914;48.178;11.716;2023-06-26T04:38:23;10.30;;;6.47;;
26163;SDS011;13914;48.178;11.716;2023-06-26T04:40:48;14.45;;;7.53;;
26163;SDS011;13914;48.178;11.716;2023-06-26T04:43:14;10.77;;;6.30;;
26163;SDS011;13914;48.178;11.716;2023-06-26T04:45:40;9.45;;;5.50;;
26163;SDS011;13914;48.178;11.716;2023-06-26T04:48:06;10.68;;;6.68;;
26163;SDS011;13914;48.178;11.716;2023-06-26T04:50:32;9.90;;;6.47;;
26163;SDS011;13914;48.178;11.716;2023-06-26T04:52:58;9.10;;;6.03;;
26163;SDS011;13914;48.178;11.716;2023-06-26T04:55:24;11.18;;;6.10;;
26163;SDS011;13914;48.178;11.716;2023-06-26T04:57:50;9.43;;;6.22;;
26163;SDS011;13914;48.178;11.716;2023-06-26T05:00:17;11.85;;;7.10;;
26163;SDS011;13914;48.178;11.716;2023-06-26T05:02:43;11.13;;;6.25;;
26163;SDS011;13914;48.178;11.716;2023-06-26T05:05:09;10.07;;;6.22;;
26163;SDS011;13914;48.178;11.716;2023-06-26T05:07:35;11.00;;;5.95;;
26163;SDS011;13914;48.178;11.716;2023-06-26T05:10:02;10.18;;;5.82;;
26163;SDS011;13914;48.178;11.716;2023-06-26T05:12:29;9.95;;;5.82;;
26163;SDS011;13914;48.178;11.716;2023-06-26T05:14:54;9.00;;;5.65;;
26163;SDS011;13914;48.178;11.716;2023-06-26T05:17:20;9.52;;;6.05;;
26163;SDS011;13914;48.178;11.716;2023-06-26T05:19:46;12.02;;;6.03;;
26163;SDS011;13914;48.178;11.716;2023-06-26T05:22:14;9.20;;;6.10;;
26163;SDS011;13914;48.178;11.716;2023-06-26T05:24:42;9.02;;;5.50;;
26163;SDS011;13914;48.178;11.716;2023-06-26T05:27:12;9.35;;;6.18;;
26163;SDS011;13914;48.178;11.716;2023-06-26T05:29:46;10.80;;;6.75;;
26163;SDS011;13914;48.178;11.716;2023-06-26T05:32:15;11.88;;;5.75;;
26163;SDS011;13914;48.178;11.716;2023-06-26T05:34:48;8.98;;;5.85;;
26163;SDS011;13914;48.178;11.716;2023-06-26T05:37:16;10.23;;;6.22;;
26163;SDS011;13914;48.178;11.716;2023-06-26T05:39:46;10.30;;;5.90;;
26163;SDS011;13914;48.178;11.716;2023-06-26T05:42:13;12.38;;;6.53;;
26163;SDS011;13914;48.178;11.716;2023-06-26T05:44:40;12.00;;;6.80;;
26163;SDS011;13914;48.178;11.716;2023-06-26T05:47:06;11.18;;;6.55;;
26163;SDS011;13914;48.178;11.716;2023-06-26T05:49:32;12.93;;;6.47;;
26163;SDS011;13914;48.178;11.716;2023-06-26T05:59:22;18.80;;;7.18;;
26163;SDS011;13914;48.178;11.716;2023-06-26T06:04:15;14.18;;;6.93;;
26163;SDS011;13914;48.178;11.716;2023-06-26T06:06:41;12.60;;;6.95;;
26163;SDS011;13914;48.178;11.716;2023-06-26T06:09:07;15.65;;;7.45;;
26163;SDS011;13914;48.178;11.716;2023-06-26T06:11:32;18.30;;;7.72;;
26163;SDS011;13914;48.178;11.716;2023-06-26T06:13:58;15.88;;;7.50;;
26163;SDS011;13914;48.178;11.716;2023-06-26T06:18:51;14.38;;;7.72;;
26163;SDS011;13914;48.178;11.716;2023-06-26T06:21:17;12.43;;;6.72;;
26163;SDS011;13914;48.178;11.716;2023-06-26T06:23:42;13.73;;;6.85;;
26163;SDS011;13914;48.178;11.716;2023-06-26T06:26:08;14.68;;;6.97;;
26163;SDS011;13914;48.178;11.716;2023-06-26T06:28:34;12.32;;;7.50;;
26163;SDS011;13914;48.178;11.716;2023-06-26T06:31:00;11.95;;;7.82;;
26163;SDS011;13914;48.178;11.716;2023-06-26T06:33:25;13.48;;;7.13;;
26163;SDS011;13914;48.178;11.716;2023-06-26T06:35:51;10.23;;;6.70;;
26163;SDS011;13914;48.178;11.716;2023-06-26T06:38:17;15.88;;;7.25;;
26163;SDS011;13914;48.178;11.716;2023-06-26T06:40:42;15.85;;;7.65;;
26163;SDS011;13914;48.178;11.716;2023-06-26T06:43:08;15.52;;;6.75;;
26163;SDS011;13914;48.178;11.716;2023-06-26T06:45:34;11.15;;;6.57;;
26163;SDS011;13914;48.178;11.716;2023-06-26T06:48:00;11.25;;;7.35;;
26163;SDS011;13914;48.178;11.716;2023-06-26T06:50:25;13.80;;;7.45;;
26163;SDS011;13914;48.178;11.716;2023-06-26T06:52:53;11.60;;;6.82;;
26163;SDS011;13914;48.178;11.716;2023-06-26T06:55:18;11.25;;;6.85;;
26163;SDS011;13914;48.178;11.716;2023-06-26T06:57:44;11.23;;;7.00;;
26163;SDS011;13914;48.178;11.716;2023-06-26T07:00:11;12.18;;;7.40;;
26163;SDS011;13914;48.178;11.716;2023-06-26T07:02:40;11.43;;;6.35;;
26163;SDS011;13914;48.178;11.716;2023-06-26T07:05:09;16.23;;;6.68;;
26163;SDS011;13914;48.178;11.716;2023-06-26T07:07:35;12.52;;;6.35;;
26163;SDS011;13914;48.178;11.716;2023-06-26T07:10:06;11.60;;;6.53;;
26163;SDS011;13914;48.178;11.716;2023-06-26T07:12:35;10.00;;;6.47;;
26163;SDS011;13914;48.178;11.716;2023-06-26T07:15:01;10.93;;;7.00;;
26163;SDS011;13914;48.178;11.716;2023-06-26T07:17:29;13.18;;;6.55;;
26163;SDS011;13914;48.178;11.716;2023-06-26T07:19:56;11.20;;;6.88;;
26163;SDS011;13914;48.178;11.716;2023-06-26T07:22:22;12.50;;;6.40;;
26163;SDS011;13914;48.178;11.716;2023-06-26T07:27:14;9.88;;;5.90;;
26163;SDS011;13914;48.178;11.716;2023-06-26T07:29:41;9.48;;;6.28;;
26163;SDS011;13914;48.178;11.716;2023-06-26T07:34:33;10.82;;;5.60;;
26163;SDS011;13914;48.178;11.716;2023-06-26T07:36:59;11.38;;;5.85;;
26163;SDS011;13914;48.178;11.716;2023-06-26T07:39:25;12.70;;;5.72;;
26163;SDS011;13914;48.178;11.716;2023-06-26T07:41:51;11.05;;;6.00;;
26163;SDS011;13914;48.178;11.716;2023-06-26T07:44:17;10.20;;;5.47;;
26163;SDS011;13914;48.178;11.716;2023-06-26T07:46:43;10.77;;;5.88;;
26163;SDS011;13914;48.178;11.716;2023-06-26T07:49:10;13.63;;;6.30;;
26163;SDS011;13914;48.178;11.716;2023-06-26T07:51:36;12.20;;;5.53;;
26163;SDS011;13914;48.178;11.716;2023-06-26T07:56:28;8.50;;;5.80;;
26163;SDS011;13914;48.178;11.716;2023-06-26T07:58:54;9.95;;;6.05;;
26163;SDS011;13914;48.178;11.716;2023-06-26T08:01:23;13.68;;;6.20;;
26163;SDS011;13914;48.178;11.716;2023-06-26T08:03:49;13.48;;;5.85;;
26163;SDS011;13914;48.178;11.716;2023-06-26T08:06:16;11.40;;;5.90;;
26163;SDS011;13914;48.178;11.716;2023-06-26T08:08:42;10.88;;;5.47;;
26163;SDS011;13914;48.178;11.716;2023-06-26T08:11:07;13.23;;;5.55;;
26163;SDS011;13914;48.178;11.716;2023-06-26T08:13:33;8.75;;;5.55;;
26163;SDS011;13914;48.178;11.716;2023-06-26T08:15:59;8.55;;;5.97;;
26163;SDS011;13914;48.178;11.716;2023-06-26T08:18:25;14.07;;;6.75;;
26163;SDS011;13914;48.178;11.716;2023-06-26T08:20:50;7.72;;;5.47;;
26163;SDS011;13914;48.178;11.716;2023-06-26T08:23:16;10.48;;;5.90;;
26163;SDS011;13914;48.178;11.716;2023-06-26T08:25:42;8.05;;;5.57;;
26163;SDS011;13914;48.178;11.716;2023-06-26T08:28:08;8.35;;;5.72;;
26163;SDS011;13914;48.178;11.716;2023-06-26T08:30:34;9.35;;;5.72;;
26163;SDS011;13914;48.178;11.716;2023-06-26T08:32:59;8.80;;;6.22;;
26163;SDS011;13914;48.178;11.716;2023-06-26T08:35:25;9.95;;;6.10;;
26163;SDS011;13914;48.178;11.716;2023-06-26T08:37:51;10.23;;;5.00;;
26163;SDS011;13914;48.178;11.716;2023-06-26T08:40:19;7.53;;;5.68;;
26163;SDS011;13914;48.178;11.716;2023-06-26T08:42:46;8.48;;;5.47;;
26163;SDS011;13914;48.178;11.716;2023-06-26T08:45:12;8.32;;;5.57;;
26163;SDS011;13914;48.178;11.716;2023-06-26T08:47:38;9.73;;;5.78;;
26163;SDS011;13914;48.178;11.716;2023-06-26T08:50:13;7.88;;;5.70;;
26163;SDS011;13914;48.178;11.716;2023-06-26T08:52:56;10.55;;;5.82;;
26163;SDS011;13914;48.178;11.716;2023-06-26T08:56:05;8.45;;;5.82;;
26163;SDS011;13914;48.178;11.716;2023-06-26T08:58:33;7.47;;;5.18;;
26163;SDS011;13914;48.178;11.716;2023-06-26T09:01:02;8.85;;;5.55;;
26163;SDS011;13914;48.178;11.716;2023-06-26T09:03:30;8.02;;;5.63;;
26163;SDS011;13914;48.178;11.716;2023-06-26T09:05:58;14.43;;;5.25;;
26163;SDS011;13914;48.178;11.716;2023-06-26T09:10:51;9.00;;;5.35;;
26163;SDS011;13914;48.178;11.716;2023-06-26T09:13:18;11.38;;;5.65;;
26163;SDS011;13914;48.178;11.716;2023-06-26T09:15:44;7.15;;;5.13;;
26163;SDS011;13914;48.178;11.716;2023-06-26T09:18:11;6.70;;;5.03;;
26163;SDS011;13914;48.178;11.716;2023-06-26T09:20:38;7.25;;;5.35;;
26163;SDS011;13914;48.178;11.716;2023-06-26T09:25:30;8.50;;;5.07;;
26163;SDS011;13914;48.178;11.716;2023-06-26T09:30:22;7.35;;;5.00;;
26163;SDS011;13914;48.178;11.716;2023-06-26T09:35:19;7.63;;;4.63;;
26163;SDS011;13914;48.178;11.716;2023-06-26T09:40:11;8.02;;;5.00;;
26163;SDS011;13914;48.178;11.716;2023-06-26T09:42:38;5.80;;;4.70;;
26163;SDS011;13914;48.178;11.716;2023-06-26T09:47:31;10.88;;;4.63;;
26163;SDS011;13914;48.178;11.716;2023-06-26T09:49:59;6.90;;;4.85;;
26163;SDS011;13914;48.178;11.716;2023-06-26T09:52:27;8.63;;;4.50;;
26163;SDS011;13914;48.178;11.716;2023-06-26T09:57:35;8.23;;;4.32;;
26163;SDS011;13914;48.178;11.716;2023-06-26T10:00:04;7.28;;;4.20;;
26163;SDS011;13914;48.178;11.716;2023-06-26T10:02:33;7.78;;;4.57;;
26163;SDS011;13914;48.178;11.716;2023-06-26T10:04:59;7.72;;;4.20;;
26163;SDS011;13914;48.178;11.716;2023-06-26T10:07:25;5.10;;;4.28;;
26163;SDS011;13914;48.178;11.716;2023-06-26T10:09:51;6.50;;;4.50;;
26163;SDS011;13914;48.178;11.716;2023-06-26T10:12:23;5.57;;;4.32;;
26163;SDS011;13914;48.178;11.716;2023-06-26T10:14:53;9.68;;;4.35;;
26163;SDS011;13914;48.178;11.716;2023-06-26T10:17:22;8.05;;;3.78;;
26163;SDS011;13914;48.178;11.716;2023-06-26T10:19:53;7.32;;;4.03;;
26163;SDS011;13914;48.178;11.716;2023-06-26T10:22:21;8.05;;;4.50;;
26163;SDS011;13914;48.178;11.716;2023-06-26T10:24:55;5.90;;;3.65;;
26163;SDS011;13914;48.178;11.716;2023-06-26T10:27:25;6.43;;;4.15;;
26163;SDS011;13914;48.178;11.716;2023-06-26T10:29:59;5.07;;;4.13;;
26163;SDS011;13914;48.178;11.716;2023-06-26T10:32:28;4.90;;;3.65;;
26163;SDS011;13914;48.178;11.716;2023-06-26T10:34:55;5.82;;;3.80;;
26163;SDS011;13914;48.178;11.716;2023-06-26T10:37:40;5.55;;;3.88;;
26163;SDS011;13914;48.178;11.716;2023-06-26T10:40:10;4.57;;;3.70;;
26163;SDS011;13914;48.178;11.716;2023-06-26T10:42:38;7.97;;;3.80;;
26163;SDS011;13914;48.178;11.716;2023-06-26T10:47:46;5.50;;;3.72;;
26163;SDS011;13914;48.178;11.716;2023-06-26T10:50:20;4.55;;;3.45;;
26163;SDS011;13914;48.178;11.716;2023-06-26T10:56:03;8.27;;;3.72;;
26163;SDS011;13914;48.178;11.716;2023-06-26T10:58:43;6.40;;;3.80;;
26163;SDS011;13914;48.178;11.716;2023-06-26T11:04:35;5.75;;;3.75;;
26163;SDS011;13914;48.178;11.716;2023-06-26T11:06:30;6.32;;;4.20;;
26163;SDS011;13914;48.178;11.716;2023-06-26T11:09:00;6.13;;;3.95;;
26163;SDS011;13914;48.178;11.716;2023-06-26T11:14:20;6.63;;;3.90;;
26163;SDS011;13914;48.178;11.716;2023-06-26T11:16:48;5.75;;;3.55;;
26163;SDS011;13914;48.178;11.716;2023-06-26T11:19:15;5.25;;;3.92;;
26163;SDS011;13914;48.178;11.716;2023-06-26T11:21:45;4.20;;;3.30;;
26163;SDS011;13914;48.178;11.716;2023-06-26T11:24:12;4.47;;;3.45;;
26163;SDS011;13914;48.178;11.716;2023-06-26T11:26:39;6.25;;;3.72;;
26163;SDS011;13914;48.178;11.716;2023-06-26T11:29:06;5.80;;;3.40;;
26163;SDS011;13914;48.178;11.716;2023-06-26T11:31:36;4.63;;;3.60;;
26163;SDS011;13914;48.178;11.716;2023-06-26T11:34:09;5.40;;;3.72;;
26163;SDS011;13914;48.178;11.716;2023-06-26T11:36:41;4.28;;;3.35;;
26163;SDS011;13914;48.178;11.716;2023-06-26T11:39:09;4.55;;;3.42;;
26163;SDS011;13914;48.178;11.716;2023-06-26T11:41:35;6.72;;;4.00;;
26163;SDS011;13914;48.178;11.716;2023-06-26T11:44:04;7.75;;;3.60;;
26163;SDS011;13914;48.178;11.716;2023-06-26T11:46:37;5.68;;;3.92;;
26163;SDS011;13914;48.178;11.716;2023-06-26T11:49:04;6.10;;;3.83;;
26163;SDS011;13914;48.178;11.716;2023-06-26T11:51:31;7.53;;;3.95;;
26163;SDS011;13914;48.178;11.716;2023-06-26T11:53:56;5.25;;;3.90;;
26163;SDS011;13914;48.178;11.716;2023-06-26T11:56:23;5.45;;;4.22;;
26163;SDS011;13914;48.178;11.716;2023-06-26T12:01:34;6.70;;;4.47;;
26163;SDS011;13914;48.178;11.716;2023-06-26T12:04:10;5.43;;;4.10;;
26163;SDS011;13914;48.178;11.716;2023-06-26T12:06:38;6.75;;;3.90;;
26163;SDS011;13914;48.178;11.716;2023-06-26T12:09:08;7.10;;;4.38;;
26163;SDS011;13914;48.178;11.716;2023-06-26T12:11:46;6.22;;;4.32;;
26163;SDS011;13914;48.178;11.716;2023-06-26T12:14:14;6.45;;;4.13;;
26163;SDS011;13914;48.178;11.716;2023-06-26T12:16:40;7.28;;;4.25;;
26163;SDS011;13914;48.178;11.716;2023-06-26T12:19:07;5.07;;;4.13;;
26163;SDS011;13914;48.178;11.716;2023-06-26T12:24:06;7.72;;;4.30;;
26163;SDS011;13914;48.178;11.716;2023-06-26T12:26:34;6.32;;;4.22;;
26163;SDS011;13914;48.178;11.716;2023-06-26T12:29:04;12.45;;;4.55;;
26163;SDS011;13914;48.178;11.716;2023-06-26T12:31:32;12.10;;;4.28;;
26163;SDS011;13914;48.178;11.716;2023-06-26T12:33:59;6.05;;;4.88;;
26163;SDS011;13914;48.178;11.716;2023-06-26T12:36:25;6.45;;;4.60;;
26163;SDS011;13914;48.178;11.716;2023-06-26T12:38:52;7.90;;;4.00;;
26163;SDS011;13914;48.178;11.716;2023-06-26T12:41:19;6.13;;;4.25;;
26163;SDS011;13914;48.178;11.716;2023-06-26T12:43:45;6.63;;;4.40;;
26163;SDS011;13914;48.178;11.716;2023-06-26T12:46:13;7.28;;;4.90;;
26163;SDS011;13914;48.178;11.716;2023-06-26T12:48:42;6.20;;;4.35;;
26163;SDS011;13914;48.178;11.716;2023-06-26T12:51:11;11.32;;;4.57;;
26163;SDS011;13914;48.178;11.716;2023-06-26T12:53:41;8.40;;;4.10;;
26163;SDS011;13914;48.178;11.716;2023-06-26T12:56:10;11.65;;;4.88;;
26163;SDS011;13914;48.178;11.716;2023-06-26T12:58:37;6.80;;;4.53;;
26163;SDS011;13914;48.178;11.716;2023-06-26T13:01:05;4.82;;;4.22;;
26163;SDS011;13914;48.178;11.716;2023-06-26T13:03:41;13.35;;;4.05;;
26163;SDS011;13914;48.178;11.716;2023-06-26T13:06:07;10.68;;;5.45;;
26163;SDS011;13914;48.178;11.716;2023-06-26T13:08:33;8.80;;;4.55;;
26163;SDS011;13914;48.178;11.716;2023-06-26T13:10:59;8.15;;;4.88;;
26163;SDS011;13914;48.178;11.716;2023-06-26T13:13:25;9.75;;;4.82;;
26163;SDS011;13914;48.178;11.716;2023-06-26T13:15:51;7.65;;;4.88;;
26163;SDS011;13914;48.178;11.716;2023-06-26T13:18:17;6.13;;;4.53;;
26163;SDS011;13914;48.178;11.716;2023-06-26T13:20:43;6.80;;;4.88;;
26163;SDS011;13914;48.178;11.716;2023-06-26T13:23:08;6.05;;;4.20;;
26163;SDS011;13914;48.178;11.716;2023-06-26T13:25:34;5.25;;;4.32;;
26163;SDS011;13914;48.178;11.716;2023-06-26T13:28:01;8.93;;;4.57;;
26163;SDS011;13914;48.178;11.716;2023-06-26T13:30:27;6.93;;;4.53;;
26163;SDS011;13914;48.178;11.716;2023-06-26T13:32:52;6.82;;;4.55;;
26163;SDS011;13914;48.178;11.716;2023-06-26T13:35:18;6.63;;;4.90;;
26163;SDS011;13914;48.178;11.716;2023-06-26T13:37:44;6.13;;;4.10;;
26163;SDS011;13914;48.178;11.716;2023-06-26T13:40:12;9.80;;;5.15;;
26163;SDS011;13914;48.178;11.716;2023-06-26T13:42:38;11.13;;;4.78;;
26163;SDS011;13914;48.178;11.716;2023-06-26T13:45:05;8.90;;;4.57;;
26163;SDS011;13914;48.178;11.716;2023-06-26T13:47:32;6.50;;;4.70;;
26163;SDS011;13914;48.178;11.716;2023-06-26T13:49:59;7.15;;;4.93;;
26163;SDS011;13914;48.178;11.716;2023-06-26T13:52:25;6.18;;;4.90;;
26163;SDS011;13914;48.178;11.716;2023-06-26T13:54:51;8.15;;;5.05;;
26163;SDS011;13914;48.178;11.716;2023-06-26T13:57:17;8.85;;;5.30;;
26163;SDS011;13914;48.178;11.716;2023-06-26T13:59:44;7.07;;;5.40;;
26163;SDS011;13914;48.178;11.716;2023-06-26T14:02:10;7.70;;;5.38;;
26163;SDS011;13914;48.178;11.716;2023-06-26T14:04:35;8.10;;;5.45;;
26163;SDS011;13914;48.178;11.716;2023-06-26T14:07:02;6.88;;;4.72;;
26163;SDS011;13914;48.178;11.716;2023-06-26T14:09:28;6.32;;;4.82;;
26163;SDS011;13914;48.178;11.716;2023-06-26T14:11:54;5.78;;;4.78;;
26163;SDS011;13914;48.178;11.716;2023-06-26T14:14:20;7.88;;;5.20;;
26163;SDS011;13914;48.178;11.716;2023-06-26T14:16:45;9.07;;;5.43;;
26163;SDS011;13914;48.178;11.716;2023-06-26T14:19:14;7.82;;;4.88;;
26163;SDS011;13914;48.178;11.716;2023-06-26T14:21:42;7.95;;;5.10;;
26163;SDS011;13914;48.178;11.716;2023-06-26T14:24:09;9.40;;;4.95;;
26163;SDS011;13914;48.178;11.716;2023-06-26T14:26:35;9.15;;;5.30;;
26163;SDS011;13914;48.178;11.716;2023-06-26T14:29:02;6.95;;;4.72;;
26163;SDS011;13914;48.178;11.716;2023-06-26T14:31:28;7.53;;;4.75;;
26163;SDS011;13914;48.178;11.716;2023-06-26T14:33:53;6.43;;;4.63;;
26163;SDS011;13914;48.178;11.716;2023-06-26T14:36:19;8.27;;;4.50;;
26163;SDS011;13914;48.178;11.716;2023-06-26T14:38:45;8.82;;;4.97;;
26163;SDS011;13914;48.178;11.716;2023-06-26T14:41:11;12.35;;;4.93;;
26163;SDS011;13914;48.178;11.716;2023-06-26T14:43:40;9.93;;;4.78;;
26163;SDS011;13914;48.178;11.716;2023-06-26T14:46:06;6.57;;;4.88;;
26163;SDS011;13914;48.178;11.716;2023-06-26T14:48:32;6.47;;;4.75;;
26163;SDS011;13914;48.178;11.716;2023-06-26T14:50:57;9.32;;;5.07;;
26163;SDS011;13914;48.178;11.716;2023-06-26T14:53:25;6.82;;;5.25;;
26163;SDS011;13914;48.178;11.716;2023-06-26T14:55:51;7.82;;;5.20;;
26163;SDS011;13914;48.178;11.716;2023-06-26T14:58:16;11.48;;;5.53;;
26163;SDS011;13914;48.178;11.716;2023-06-26T15:00:42;9.07;;;5.20;;
26163;SDS011;13914;48.178;11.716;2023-06-26T15:03:08;9.20;;;5.60;;
26163;SDS011;13914;48.178;11.716;2023-06-26T15:05:35;13.40;;;5.40;;
26163;SDS011;13914;48.178;11.716;2023-06-26T15:08:00;9.05;;;5.32;;
26163;SDS011;13914;48.178;11.716;2023-06-26T15:10:26;5.85;;;4.55;;
26163;SDS011;13914;48.178;11.716;2023-06-26T15:12:52;6.05;;;4.20;;
26163;SDS011;13914;48.178;11.716;2023-06-26T15:15:18;6.88;;;5.07;;
26163;SDS011;13914;48.178;11.716;2023-06-26T15:17:44;8.70;;;5.05;;
26163;SDS011;13914;48.178;11.716;2023-06-26T15:20:10;5.70;;;5.05;;
26163;SDS011;13914;48.178;11.716;2023-06-26T15:22:36;7.18;;;4.88;;
26163;SDS011;13914;48.178;11.716;2023-06-26T15:25:02;10.60;;;5.15;;
26163;SDS011;13914;48.178;11.716;2023-06-26T15:27:28;10.00;;;5.60;;
26163;SDS011;13914;48.178;11.716;2023-06-26T15:29:53;8.75;;;5.15;;
26163;SDS011;13914;48.178;11.716;2023-06-26T15:32:19;8.68;;;5.68;;
26163;SDS011;13914;48.178;11.716;2023-06-26T15:34:45;7.05;;;4.97;;
26163;SDS011;13914;48.178;11.716;2023-06-26T15:37:12;8.40;;;5.93;;
26163;SDS011;13914;48.178;11.716;2023-06-26T15:39:38;8.27;;;5.25;;
26163;SDS011;13914;48.178;11.716;2023-06-26T15:42:04;7.10;;;5.65;;
26163;SDS011;13914;48.178;11.716;2023-06-26T15:44:31;7.10;;;5.60;;
26163;SDS011;13914;48.178;11.716;2023-06-26T15:46:57;8.07;;;5.88;;
26163;SDS011;13914;48.178;11.716;2023-06-26T15:49:26;6.90;;;5.40;;